sensor_id;sensor_type;location;lat;lon;timestamp;P1;durP1;ratioP1;P2;durP2;ratioP2
18752;SDS011;9505;50.882;5.350;2023-07-20T00:01:51;29.80;;;10.27;;
18752;SDS011;9505;50.882;5.350;2023-07-20T00:04:17;26.58;;;9.07;;
18752;SDS011;9505;50.882;5.350;2023-07-20T00:06:42;31.65;;;9.98;;
18752;SDS011;9505;50.882;5.350;2023-07-20T00:09:08;26.55;;;9.98;;
18752;SDS011;9505;50.882;5.350;2023-07-20T00:11:37;33.80;;;10.38;;
18752;SDS011;9505;50.882;5.350;2023-07-20T00:14:04;38.85;;;10.63;;
18752;SDS011;9505;50.882;5.350;2023-07-20T00:16:30;32.78;;;9.68;;
18752;SDS011;9505;50.882;5.350;2023-07-20T00:18:56;29.63;;;10.23;;
18752;SDS011;9505;50.882;5.350;2023-07-20T00:21:22;34.30;;;10.32;;
18752;SDS011;9505;50.882;5.350;2023-07-20T00:23:48;28.33;;;9.68;;
18752;SDS011;9505;50.882;5.350;2023-07-20T00:26:13;30.50;;;9.45;;
18752;SDS011;9505;50.882;5.350;2023-07-20T00:28:39;31.05;;;9.63;;
18752;SDS011;9505;50.882;5.350;2023-07-20T00:31:04;29.45;;;9.35;;
18752;SDS011;9505;50.882;5.350;2023-07-20T00:33:30;34.90;;;10.32;;
18752;SDS011;9505;50.882;5.350;2023-07-20T00:35:56;35.05;;;10.10;;
18752;SDS011;9505;50.882;5.350;2023-07-20T00:38:21;31.55;;;10.75;;
18752;SDS011;9505;50.882;5.350;2023-07-20T00:40:47;35.58;;;10.48;;
18752;SDS011;9505;50.882;5.350;2023-07-20T00:43:14;33.53;;;9.38;;
18752;SDS011;9505;50.882;5.350;2023-07-20T00:45:40;32.92;;;9.55;;
18752;SDS011;9505;50.882;5.350;2023-07-20T00:48:06;37.20;;;11.35;;
18752;SDS011;9505;50.882;5.350;2023-07-20T00:50:34;36.65;;;10.02;;
18752;SDS011;9505;50.882;5.350;2023-07-20T00:53:00;33.92;;;10.70;;
18752;SDS011;9505;50.882;5.350;2023-07-20T00:55:29;30.90;;;9.52;;
18752;SDS011;9505;50.882;5.350;2023-07-20T00:57:55;41.25;;;11.73;;
18752;SDS011;9505;50.882;5.350;2023-07-20T01:00:21;31.63;;;9.60;;
18752;SDS011;9505;50.882;5.350;2023-07-20T01:02:46;33.08;;;10.02;;
18752;SDS011;9505;50.882;5.350;2023-07-20T01:05:12;40.72;;;10.40;;
18752;SDS011;9505;50.882;5.350;2023-07-20T01:10:39;33.50;;;8.95;;
18752;SDS011;9505;50.882;5.350;2023-07-20T01:13:04;34.95;;;10.18;;
18752;SDS011;9505;50.882;5.350;2023-07-20T01:15:33;36.25;;;9.52;;
18752;SDS011;9505;50.882;5.350;2023-07-20T01:17:59;30.85;;;9.27;;
18752;SDS011;9505;50.882;5.350;2023-07-20T01:20:29;30.85;;;9.07;;
18752;SDS011;9505;50.882;5.350;2023-07-20T01:23:05;21.95;;;8.52;;
18752;SDS011;9505;50.882;5.350;2023-07-20T01:31:23;22.23;;;7.45;;
18752;SDS011;9505;50.882;5.350;2023-07-20T01:33:50;37.40;;;9.18;;
18752;SDS011;9505;50.882;5.350;2023-07-20T01:36:19;34.50;;;8.35;;
18752;SDS011;9505;50.882;5.350;2023-07-20T01:38:46;33.33;;;8.40;;
18752;SDS011;9505;50.882;5.350;2023-07-20T01:41:12;22.58;;;7.57;;
18752;SDS011;9505;50.882;5.350;2023-07-20T01:43:39;20.73;;;7.47;;
18752;SDS011;9505;50.882;5.350;2023-07-20T01:46:05;38.95;;;8.57;;
18752;SDS011;9505;50.882;5.350;2023-07-20T01:48:31;21.88;;;7.30;;
18752;SDS011;9505;50.882;5.350;2023-07-20T01:50:57;36.40;;;8.07;;
18752;SDS011;9505;50.882;5.350;2023-07-20T01:53:22;24.77;;;7.40;;
18752;SDS011;9505;50.882;5.350;2023-07-20T01:55:48;27.90;;;7.65;;
18752;SDS011;9505;50.882;5.350;2023-07-20T01:58:14;31.75;;;8.27;;
18752;SDS011;9505;50.882;5.350;2023-07-20T02:00:39;29.92;;;7.45;;
18752;SDS011;9505;50.882;5.350;2023-07-20T02:03:05;29.05;;;8.02;;
18752;SDS011;9505;50.882;5.350;2023-07-20T02:05:31;20.33;;;7.28;;
18752;SDS011;9505;50.882;5.350;2023-07-20T02:07:57;28.55;;;7.70;;
18752;SDS011;9505;50.882;5.350;2023-07-20T02:10:22;19.58;;;6.90;;
18752;SDS011;9505;50.882;5.350;2023-07-20T02:12:48;25.90;;;8.45;;
18752;SDS011;9505;50.882;5.350;2023-07-20T02:15:14;36.15;;;8.60;;
18752;SDS011;9505;50.882;5.350;2023-07-20T02:17:41;26.70;;;8.57;;
18752;SDS011;9505;50.882;5.350;2023-07-20T02:20:08;30.75;;;8.25;;
18752;SDS011;9505;50.882;5.350;2023-07-20T02:22:35;32.38;;;7.80;;
18752;SDS011;9505;50.882;5.350;2023-07-20T02:25:06;22.30;;;7.35;;
18752;SDS011;9505;50.882;5.350;2023-07-20T02:27:35;31.65;;;8.20;;
18752;SDS011;9505;50.882;5.350;2023-07-20T02:30:02;29.85;;;7.22;;
18752;SDS011;9505;50.882;5.350;2023-07-20T02:32:29;29.75;;;8.07;;
18752;SDS011;9505;50.882;5.350;2023-07-20T02:34:55;28.38;;;8.27;;
18752;SDS011;9505;50.882;5.350;2023-07-20T02:37:20;23.10;;;6.75;;
18752;SDS011;9505;50.882;5.350;2023-07-20T02:39:46;37.35;;;8.57;;
18752;SDS011;9505;50.882;5.350;2023-07-20T02:42:12;33.47;;;8.20;;
18752;SDS011;9505;50.882;5.350;2023-07-20T02:44:38;33.17;;;8.68;;
18752;SDS011;9505;50.882;5.350;2023-07-20T02:47:03;29.77;;;7.88;;
18752;SDS011;9505;50.882;5.350;2023-07-20T02:49:29;22.45;;;7.55;;
18752;SDS011;9505;50.882;5.350;2023-07-20T02:51:55;30.67;;;7.97;;
18752;SDS011;9505;50.882;5.350;2023-07-20T02:54:20;35.15;;;8.20;;
18752;SDS011;9505;50.882;5.350;2023-07-20T02:56:46;31.42;;;8.43;;
18752;SDS011;9505;50.882;5.350;2023-07-20T02:59:12;29.00;;;7.82;;
18752;SDS011;9505;50.882;5.350;2023-07-20T03:01:38;25.95;;;8.02;;
18752;SDS011;9505;50.882;5.350;2023-07-20T03:04:03;28.25;;;8.43;;
18752;SDS011;9505;50.882;5.350;2023-07-20T03:06:29;22.48;;;7.30;;
18752;SDS011;9505;50.882;5.350;2023-07-20T03:08:55;37.88;;;9.25;;
18752;SDS011;9505;50.882;5.350;2023-07-20T03:11:20;31.35;;;8.60;;
18752;SDS011;9505;50.882;5.350;2023-07-20T03:13:46;32.88;;;9.50;;
18752;SDS011;9505;50.882;5.350;2023-07-20T03:16:13;34.13;;;8.70;;
18752;SDS011;9505;50.882;5.350;2023-07-20T03:18:42;27.92;;;8.70;;
18752;SDS011;9505;50.882;5.350;2023-07-20T03:21:09;44.45;;;9.85;;
18752;SDS011;9505;50.882;5.350;2023-07-20T03:23:39;39.75;;;9.48;;
18752;SDS011;9505;50.882;5.350;2023-07-20T03:26:05;31.00;;;8.93;;
18752;SDS011;9505;50.882;5.350;2023-07-20T03:28:33;40.88;;;8.75;;
18752;SDS011;9505;50.882;5.350;2023-07-20T03:31:02;36.95;;;8.60;;
18752;SDS011;9505;50.882;5.350;2023-07-20T03:33:28;28.15;;;7.95;;
18752;SDS011;9505;50.882;5.350;2023-07-20T03:35:55;29.67;;;8.43;;
18752;SDS011;9505;50.882;5.350;2023-07-20T03:38:21;29.48;;;9.00;;
18752;SDS011;9505;50.882;5.350;2023-07-20T03:40:57;34.03;;;9.27;;
18752;SDS011;9505;50.882;5.350;2023-07-20T03:43:24;31.50;;;9.18;;
18752;SDS011;9505;50.882;5.350;2023-07-20T03:45:52;38.47;;;9.57;;
18752;SDS011;9505;50.882;5.350;2023-07-20T03:48:19;36.03;;;8.27;;
18752;SDS011;9505;50.882;5.350;2023-07-20T03:50:48;37.78;;;9.63;;
18752;SDS011;9505;50.882;5.350;2023-07-20T03:53:15;40.03;;;10.15;;
18752;SDS011;9505;50.882;5.350;2023-07-20T03:55:41;34.88;;;9.38;;
18752;SDS011;9505;50.882;5.350;2023-07-20T03:58:11;35.60;;;10.85;;
18752;SDS011;9505;50.882;5.350;2023-07-20T04:00:37;34.55;;;8.85;;
18752;SDS011;9505;50.882;5.350;2023-07-20T04:03:03;37.58;;;9.57;;
18752;SDS011;9505;50.882;5.350;2023-07-20T04:05:29;27.45;;;9.55;;
18752;SDS011;9505;50.882;5.350;2023-07-20T04:07:54;47.47;;;10.70;;
18752;SDS011;9505;50.882;5.350;2023-07-20T04:10:20;40.92;;;9.45;;
18752;SDS011;9505;50.882;5.350;2023-07-20T04:12:46;33.10;;;9.43;;
18752;SDS011;9505;50.882;5.350;2023-07-20T04:15:14;36.30;;;8.80;;
18752;SDS011;9505;50.882;5.350;2023-07-20T04:17:40;37.30;;;11.27;;
18752;SDS011;9505;50.882;5.350;2023-07-20T04:20:06;44.80;;;11.05;;
18752;SDS011;9505;50.882;5.350;2023-07-20T04:22:32;34.58;;;9.45;;
18752;SDS011;9505;50.882;5.350;2023-07-20T04:24:58;38.40;;;9.63;;
18752;SDS011;9505;50.882;5.350;2023-07-20T04:27:24;46.55;;;11.93;;
18752;SDS011;9505;50.882;5.350;2023-07-20T04:29:49;38.58;;;11.98;;
18752;SDS011;9505;50.882;5.350;2023-07-20T04:32:15;50.83;;;13.00;;
18752;SDS011;9505;50.882;5.350;2023-07-20T04:34:41;54.13;;;13.32;;
18752;SDS011;9505;50.882;5.350;2023-07-20T04:37:07;47.95;;;13.32;;
18752;SDS011;9505;50.882;5.350;2023-07-20T04:39:32;40.08;;;12.32;;
18752;SDS011;9505;50.882;5.350;2023-07-20T04:41:58;49.50;;;13.68;;
18752;SDS011;9505;50.882;5.350;2023-07-20T04:44:24;50.22;;;13.82;;
18752;SDS011;9505;50.882;5.350;2023-07-20T04:46:49;47.92;;;14.65;;
18752;SDS011;9505;50.882;5.350;2023-07-20T04:49:15;52.00;;;15.73;;
18752;SDS011;9505;50.882;5.350;2023-07-20T04:51:41;57.33;;;16.27;;
18752;SDS011;9505;50.882;5.350;2023-07-20T04:54:06;52.53;;;14.75;;
18752;SDS011;9505;50.882;5.350;2023-07-20T04:56:32;51.97;;;14.85;;
18752;SDS011;9505;50.882;5.350;2023-07-20T04:58:58;63.05;;;17.17;;
18752;SDS011;9505;50.882;5.350;2023-07-20T05:01:24;53.25;;;15.32;;
18752;SDS011;9505;50.882;5.350;2023-07-20T05:03:49;49.60;;;15.88;;
18752;SDS011;9505;50.882;5.350;2023-07-20T05:06:15;49.85;;;14.93;;
18752;SDS011;9505;50.882;5.350;2023-07-20T05:08:41;57.85;;;16.58;;
18752;SDS011;9505;50.882;5.350;2023-07-20T05:11:06;57.28;;;18.88;;
18752;SDS011;9505;50.882;5.350;2023-07-20T05:13:33;52.53;;;16.83;;
18752;SDS011;9505;50.882;5.350;2023-07-20T05:15:58;54.47;;;17.98;;
18752;SDS011;9505;50.882;5.350;2023-07-20T05:18:24;61.47;;;18.35;;
18752;SDS011;9505;50.882;5.350;2023-07-20T05:20:50;56.72;;;18.90;;
18752;SDS011;9505;50.882;5.350;2023-07-20T05:23:16;49.30;;;16.88;;
18752;SDS011;9505;50.882;5.350;2023-07-20T05:25:43;36.17;;;13.88;;
18752;SDS011;9505;50.882;5.350;2023-07-20T05:28:08;69.65;;;18.40;;
18752;SDS011;9505;50.882;5.350;2023-07-20T05:30:34;42.85;;;14.65;;
18752;SDS011;9505;50.882;5.350;2023-07-20T05:33:00;45.17;;;15.55;;
18752;SDS011;9505;50.882;5.350;2023-07-20T05:35:26;37.22;;;13.65;;
18752;SDS011;9505;50.882;5.350;2023-07-20T05:37:51;50.35;;;17.23;;
18752;SDS011;9505;50.882;5.350;2023-07-20T05:40:17;43.03;;;14.07;;
18752;SDS011;9505;50.882;5.350;2023-07-20T05:42:47;36.10;;;14.93;;
18752;SDS011;9505;50.882;5.350;2023-07-20T05:45:14;39.70;;;14.90;;
18752;SDS011;9505;50.882;5.350;2023-07-20T05:47:40;25.33;;;12.70;;
18752;SDS011;9505;50.882;5.350;2023-07-20T05:50:07;39.85;;;15.38;;
18752;SDS011;9505;50.882;5.350;2023-07-20T05:52:32;25.30;;;13.02;;
18752;SDS011;9505;50.882;5.350;2023-07-20T05:54:58;31.70;;;12.82;;
18752;SDS011;9505;50.882;5.350;2023-07-20T05:57:24;35.92;;;13.82;;
18752;SDS011;9505;50.882;5.350;2023-07-20T05:59:49;35.45;;;13.85;;
18752;SDS011;9505;50.882;5.350;2023-07-20T06:02:15;29.20;;;13.93;;
18752;SDS011;9505;50.882;5.350;2023-07-20T06:04:41;34.22;;;13.88;;
18752;SDS011;9505;50.882;5.350;2023-07-20T06:07:07;32.10;;;12.52;;
18752;SDS011;9505;50.882;5.350;2023-07-20T06:09:33;25.45;;;11.85;;
18752;SDS011;9505;50.882;5.350;2023-07-20T06:11:59;28.08;;;13.32;;
18752;SDS011;9505;50.882;5.350;2023-07-20T06:14:25;28.10;;;13.00;;
18752;SDS011;9505;50.882;5.350;2023-07-20T06:16:50;29.77;;;11.95;;
18752;SDS011;9505;50.882;5.350;2023-07-20T06:19:16;28.10;;;11.93;;
18752;SDS011;9505;50.882;5.350;2023-07-20T06:21:42;37.60;;;12.70;;
18752;SDS011;9505;50.882;5.350;2023-07-20T06:24:08;25.60;;;11.70;;
18752;SDS011;9505;50.882;5.350;2023-07-20T06:26:34;27.55;;;11.80;;
18752;SDS011;9505;50.882;5.350;2023-07-20T06:29:05;24.88;;;12.50;;
18752;SDS011;9505;50.882;5.350;2023-07-20T06:31:31;25.88;;;12.75;;
18752;SDS011;9505;50.882;5.350;2023-07-20T06:33:58;30.77;;;12.80;;
18752;SDS011;9505;50.882;5.350;2023-07-20T06:36:23;27.52;;;11.95;;
18752;SDS011;9505;50.882;5.350;2023-07-20T06:38:51;29.20;;;13.32;;
18752;SDS011;9505;50.882;5.350;2023-07-20T06:41:16;27.25;;;13.05;;
18752;SDS011;9505;50.882;5.350;2023-07-20T06:43:43;25.40;;;11.77;;
18752;SDS011;9505;50.882;5.350;2023-07-20T06:46:08;31.02;;;11.88;;
18752;SDS011;9505;50.882;5.350;2023-07-20T06:48:34;28.25;;;11.15;;
18752;SDS011;9505;50.882;5.350;2023-07-20T06:50:59;26.50;;;11.73;;
18752;SDS011;9505;50.882;5.350;2023-07-20T06:53:25;27.17;;;12.23;;
18752;SDS011;9505;50.882;5.350;2023-07-20T06:55:51;32.08;;;11.80;;
18752;SDS011;9505;50.882;5.350;2023-07-20T06:58:16;32.13;;;11.10;;
18752;SDS011;9505;50.882;5.350;2023-07-20T07:00:43;24.73;;;10.85;;
18752;SDS011;9505;50.882;5.350;2023-07-20T07:03:09;21.73;;;10.43;;
18752;SDS011;9505;50.882;5.350;2023-07-20T07:05:36;30.40;;;10.82;;
18752;SDS011;9505;50.882;5.350;2023-07-20T07:08:03;26.58;;;9.77;;
18752;SDS011;9505;50.882;5.350;2023-07-20T07:10:32;28.00;;;10.95;;
18752;SDS011;9505;50.882;5.350;2023-07-20T07:12:58;28.92;;;11.32;;
18752;SDS011;9505;50.882;5.350;2023-07-20T07:15:25;23.27;;;10.00;;
18752;SDS011;9505;50.882;5.350;2023-07-20T07:17:52;25.80;;;9.93;;
18752;SDS011;9505;50.882;5.350;2023-07-20T07:20:18;26.40;;;10.82;;
18752;SDS011;9505;50.882;5.350;2023-07-20T07:22:44;26.83;;;10.18;;
18752;SDS011;9505;50.882;5.350;2023-07-20T07:25:10;22.08;;;8.80;;
18752;SDS011;9505;50.882;5.350;2023-07-20T07:27:36;24.63;;;9.23;;
18752;SDS011;9505;50.882;5.350;2023-07-20T07:30:02;23.17;;;9.10;;
18752;SDS011;9505;50.882;5.350;2023-07-20T07:32:28;20.92;;;7.97;;
18752;SDS011;9505;50.882;5.350;2023-07-20T07:34:54;17.17;;;7.88;;
18752;SDS011;9505;50.882;5.350;2023-07-20T07:37:20;21.10;;;8.80;;
18752;SDS011;9505;50.882;5.350;2023-07-20T07:39:46;22.30;;;8.85;;
18752;SDS011;9505;50.882;5.350;2023-07-20T07:42:12;17.25;;;7.35;;
18752;SDS011;9505;50.882;5.350;2023-07-20T07:44:38;21.48;;;8.23;;
18752;SDS011;9505;50.882;5.350;2023-07-20T07:47:04;22.05;;;8.90;;
18752;SDS011;9505;50.882;5.350;2023-07-20T07:49:29;16.40;;;8.13;;
18752;SDS011;9505;50.882;5.350;2023-07-20T07:51:56;19.85;;;7.60;;
18752;SDS011;9505;50.882;5.350;2023-07-20T07:54:22;23.10;;;8.07;;
18752;SDS011;9505;50.882;5.350;2023-07-20T07:56:47;20.90;;;7.75;;
18752;SDS011;9505;50.882;5.350;2023-07-20T07:59:13;22.17;;;8.00;;
18752;SDS011;9505;50.882;5.350;2023-07-20T08:01:38;23.02;;;7.65;;
18752;SDS011;9505;50.882;5.350;2023-07-20T08:04:04;16.17;;;5.93;;
18752;SDS011;9505;50.882;5.350;2023-07-20T08:06:30;50.22;;;10.38;;
18752;SDS011;9505;50.882;5.350;2023-07-20T08:08:56;10.77;;;6.28;;
18752;SDS011;9505;50.882;5.350;2023-07-20T08:11:23;14.35;;;5.22;;
18752;SDS011;9505;50.882;5.350;2023-07-20T08:13:48;22.35;;;6.25;;
18752;SDS011;9505;50.882;5.350;2023-07-20T08:16:14;20.77;;;7.30;;
18752;SDS011;9505;50.882;5.350;2023-07-20T08:18:40;17.88;;;6.75;;
18752;SDS011;9505;50.882;5.350;2023-07-20T08:21:05;20.35;;;6.40;;
18752;SDS011;9505;50.882;5.350;2023-07-20T08:23:31;18.95;;;6.60;;
18752;SDS011;9505;50.882;5.350;2023-07-20T08:25:57;15.93;;;4.90;;
18752;SDS011;9505;50.882;5.350;2023-07-20T08:28:22;15.55;;;5.30;;
18752;SDS011;9505;50.882;5.350;2023-07-20T08:30:48;10.90;;;3.80;;
18752;SDS011;9505;50.882;5.350;2023-07-20T08:33:15;12.50;;;4.35;;
18752;SDS011;9505;50.882;5.350;2023-07-20T08:35:43;16.60;;;5.18;;
18752;SDS011;9505;50.882;5.350;2023-07-20T08:38:08;14.02;;;5.32;;
18752;SDS011;9505;50.882;5.350;2023-07-20T08:40:39;15.10;;;4.97;;
18752;SDS011;9505;50.882;5.350;2023-07-20T08:43:12;17.13;;;5.45;;
18752;SDS011;9505;50.882;5.350;2023-07-20T08:45:41;12.57;;;5.32;;
18752;SDS011;9505;50.882;5.350;2023-07-20T08:48:10;11.18;;;4.55;;
18752;SDS011;9505;50.882;5.350;2023-07-20T08:50:37;14.57;;;5.20;;
18752;SDS011;9505;50.882;5.350;2023-07-20T08:53:03;17.85;;;6.07;;
18752;SDS011;9505;50.882;5.350;2023-07-20T08:55:29;15.38;;;4.82;;
18752;SDS011;9505;50.882;5.350;2023-07-20T08:57:56;14.45;;;4.63;;
18752;SDS011;9505;50.882;5.350;2023-07-20T09:00:23;20.38;;;4.72;;
18752;SDS011;9505;50.882;5.350;2023-07-20T09:02:51;14.50;;;4.97;;
18752;SDS011;9505;50.882;5.350;2023-07-20T09:05:18;11.52;;;4.68;;
18752;SDS011;9505;50.882;5.350;2023-07-20T09:07:45;17.30;;;5.43;;
18752;SDS011;9505;50.882;5.350;2023-07-20T09:10:11;16.23;;;4.82;;
18752;SDS011;9505;50.882;5.350;2023-07-20T09:12:41;30.95;;;6.45;;
18752;SDS011;9505;50.882;5.350;2023-07-20T09:15:08;16.50;;;4.78;;
18752;SDS011;9505;50.882;5.350;2023-07-20T09:17:35;21.88;;;4.55;;
18752;SDS011;9505;50.882;5.350;2023-07-20T09:20:04;16.30;;;4.13;;
18752;SDS011;9505;50.882;5.350;2023-07-20T09:22:36;13.63;;;3.70;;
18752;SDS011;9505;50.882;5.350;2023-07-20T09:25:11;9.45;;;3.00;;
18752;SDS011;9505;50.882;5.350;2023-07-20T09:27:38;15.18;;;3.80;;
18752;SDS011;9505;50.882;5.350;2023-07-20T09:30:06;11.40;;;3.63;;
18752;SDS011;9505;50.882;5.350;2023-07-20T09:32:38;8.30;;;2.88;;
18752;SDS011;9505;50.882;5.350;2023-07-20T09:35:13;14.20;;;3.47;;
18752;SDS011;9505;50.882;5.350;2023-07-20T09:37:47;12.85;;;3.05;;
18752;SDS011;9505;50.882;5.350;2023-07-20T09:40:17;12.73;;;3.20;;
18752;SDS011;9505;50.882;5.350;2023-07-20T09:42:43;15.55;;;4.20;;
18752;SDS011;9505;50.882;5.350;2023-07-20T09:45:09;12.68;;;3.53;;
18752;SDS011;9505;50.882;5.350;2023-07-20T09:47:35;15.02;;;4.40;;
18752;SDS011;9505;50.882;5.350;2023-07-20T09:50:06;13.75;;;3.63;;
18752;SDS011;9505;50.882;5.350;2023-07-20T09:52:41;14.65;;;3.63;;
18752;SDS011;9505;50.882;5.350;2023-07-20T09:55:09;8.85;;;2.25;;
18752;SDS011;9505;50.882;5.350;2023-07-20T09:57:38;17.48;;;3.58;;
18752;SDS011;9505;50.882;5.350;2023-07-20T10:00:06;10.93;;;2.55;;
18752;SDS011;9505;50.882;5.350;2023-07-20T10:02:43;15.90;;;3.30;;
18752;SDS011;9505;50.882;5.350;2023-07-20T10:05:10;14.43;;;3.22;;
18752;SDS011;9505;50.882;5.350;2023-07-20T10:07:40;13.00;;;3.55;;
18752;SDS011;9505;50.882;5.350;2023-07-20T10:10:11;8.77;;;2.53;;
18752;SDS011;9505;50.882;5.350;2023-07-20T10:12:39;17.02;;;3.70;;
18752;SDS011;9505;50.882;5.350;2023-07-20T10:20:56;11.43;;;2.47;;
18752;SDS011;9505;50.882;5.350;2023-07-20T10:23:26;12.90;;;2.30;;
18752;SDS011;9505;50.882;5.350;2023-07-20T10:25:53;12.27;;;2.60;;
18752;SDS011;9505;50.882;5.350;2023-07-20T10:28:19;10.77;;;2.47;;
18752;SDS011;9505;50.882;5.350;2023-07-20T10:30:48;13.98;;;2.50;;
18752;SDS011;9505;50.882;5.350;2023-07-20T10:33:15;7.20;;;1.92;;
18752;SDS011;9505;50.882;5.350;2023-07-20T10:38:18;12.23;;;2.65;;
18752;SDS011;9505;50.882;5.350;2023-07-20T10:40:53;16.35;;;3.42;;
18752;SDS011;9505;50.882;5.350;2023-07-20T10:43:20;10.68;;;2.55;;
18752;SDS011;9505;50.882;5.350;2023-07-20T10:45:52;8.18;;;2.30;;
18752;SDS011;9505;50.882;5.350;2023-07-20T10:50:45;12.77;;;2.45;;
18752;SDS011;9505;50.882;5.350;2023-07-20T10:53:31;10.68;;;2.70;;
18752;SDS011;9505;50.882;5.350;2023-07-20T10:56:08;12.48;;;2.58;;
18752;SDS011;9505;50.882;5.350;2023-07-20T10:58:38;10.38;;;2.05;;
18752;SDS011;9505;50.882;5.350;2023-07-20T11:01:05;13.45;;;2.53;;
18752;SDS011;9505;50.882;5.350;2023-07-20T11:03:36;11.82;;;2.22;;
18752;SDS011;9505;50.882;5.350;2023-07-20T11:08:57;8.27;;;1.88;;
18752;SDS011;9505;50.882;5.350;2023-07-20T11:11:42;7.85;;;1.95;;
18752;SDS011;9505;50.882;5.350;2023-07-20T11:14:10;12.30;;;2.33;;
18752;SDS011;9505;50.882;5.350;2023-07-20T11:16:45;10.95;;;2.28;;
18752;SDS011;9505;50.882;5.350;2023-07-20T11:21:53;15.27;;;2.50;;
18752;SDS011;9505;50.882;5.350;2023-07-20T11:24:23;14.85;;;2.53;;
18752;SDS011;9505;50.882;5.350;2023-07-20T11:29:18;13.45;;;2.22;;
18752;SDS011;9505;50.882;5.350;2023-07-20T11:31:46;11.02;;;1.88;;
18752;SDS011;9505;50.882;5.350;2023-07-20T11:34:13;13.77;;;2.45;;
18752;SDS011;9505;50.882;5.350;2023-07-20T11:36:40;11.13;;;2.22;;
18752;SDS011;9505;50.882;5.350;2023-07-20T11:39:10;11.57;;;2.17;;
18752;SDS011;9505;50.882;5.350;2023-07-20T11:41:36;7.45;;;1.60;;
18752;SDS011;9505;50.882;5.350;2023-07-20T11:44:03;17.77;;;2.85;;
18752;SDS011;9505;50.882;5.350;2023-07-20T11:46:31;14.75;;;2.42;;
18752;SDS011;9505;50.882;5.350;2023-07-20T11:49:00;13.23;;;2.10;;
18752;SDS011;9505;50.882;5.350;2023-07-20T11:51:26;12.57;;;2.22;;
18752;SDS011;9505;50.882;5.350;2023-07-20T11:53:53;13.73;;;2.15;;
18752;SDS011;9505;50.882;5.350;2023-07-20T11:56:19;11.60;;;2.22;;
18752;SDS011;9505;50.882;5.350;2023-07-20T11:58:45;12.98;;;2.20;;
18752;SDS011;9505;50.882;5.350;2023-07-20T12:01:14;9.50;;;1.90;;
18752;SDS011;9505;50.882;5.350;2023-07-20T12:03:41;13.20;;;2.30;;
18752;SDS011;9505;50.882;5.350;2023-07-20T12:06:08;7.35;;;1.90;;
18752;SDS011;9505;50.882;5.350;2023-07-20T12:08:35;11.88;;;2.25;;
18752;SDS011;9505;50.882;5.350;2023-07-20T12:11:04;11.57;;;2.22;;
18752;SDS011;9505;50.882;5.350;2023-07-20T12:16:10;11.82;;;1.70;;
18752;SDS011;9505;50.882;5.350;2023-07-20T12:18:40;12.80;;;2.08;;
18752;SDS011;9505;50.882;5.350;2023-07-20T12:21:09;10.40;;;1.73;;
18752;SDS011;9505;50.882;5.350;2023-07-20T12:23:38;9.95;;;1.98;;
18752;SDS011;9505;50.882;5.350;2023-07-20T12:26:08;16.60;;;2.45;;
18752;SDS011;9505;50.882;5.350;2023-07-20T12:28:41;13.05;;;2.25;;
18752;SDS011;9505;50.882;5.350;2023-07-20T12:31:10;11.05;;;2.00;;
18752;SDS011;9505;50.882;5.350;2023-07-20T12:33:38;5.82;;;1.63;;
18752;SDS011;9505;50.882;5.350;2023-07-20T12:36:04;13.90;;;2.10;;
18752;SDS011;9505;50.882;5.350;2023-07-20T12:38:30;8.48;;;2.05;;
18752;SDS011;9505;50.882;5.350;2023-07-20T12:40:56;15.43;;;2.33;;
18752;SDS011;9505;50.882;5.350;2023-07-20T12:43:23;11.90;;;2.22;;
18752;SDS011;9505;50.882;5.350;2023-07-20T12:45:49;10.48;;;1.75;;
18752;SDS011;9505;50.882;5.350;2023-07-20T12:48:15;17.00;;;2.45;;
18752;SDS011;9505;50.882;5.350;2023-07-20T12:50:40;13.32;;;2.35;;
18752;SDS011;9505;50.882;5.350;2023-07-20T12:53:06;20.35;;;2.88;;
18752;SDS011;9505;50.882;5.350;2023-07-20T12:55:32;11.20;;;1.80;;
18752;SDS011;9505;50.882;5.350;2023-07-20T12:57:57;24.25;;;3.22;;
18752;SDS011;9505;50.882;5.350;2023-07-20T13:00:23;11.43;;;2.20;;
18752;SDS011;9505;50.882;5.350;2023-07-20T13:02:49;9.80;;;1.75;;
18752;SDS011;9505;50.882;5.350;2023-07-20T13:05:15;7.57;;;1.40;;
18752;SDS011;9505;50.882;5.350;2023-07-20T13:07:41;14.15;;;2.08;;
18752;SDS011;9505;50.882;5.350;2023-07-20T13:10:08;13.43;;;2.22;;
18752;SDS011;9505;50.882;5.350;2023-07-20T13:12:35;8.90;;;1.65;;
18752;SDS011;9505;50.882;5.350;2023-07-20T13:15:02;12.02;;;2.08;;
18752;SDS011;9505;50.882;5.350;2023-07-20T13:17:33;14.80;;;2.22;;
18752;SDS011;9505;50.882;5.350;2023-07-20T13:20:06;9.98;;;1.75;;
18752;SDS011;9505;50.882;5.350;2023-07-20T13:22:34;4.65;;;1.25;;
18752;SDS011;9505;50.882;5.350;2023-07-20T13:25:00;11.50;;;2.08;;
18752;SDS011;9505;50.882;5.350;2023-07-20T13:27:26;14.82;;;2.30;;
18752;SDS011;9505;50.882;5.350;2023-07-20T13:29:52;11.77;;;2.03;;
18752;SDS011;9505;50.882;5.350;2023-07-20T13:32:18;9.05;;;1.65;;
18752;SDS011;9505;50.882;5.350;2023-07-20T13:34:44;12.02;;;2.05;;
18752;SDS011;9505;50.882;5.350;2023-07-20T13:37:10;8.27;;;1.80;;
18752;SDS011;9505;50.882;5.350;2023-07-20T13:39:37;7.85;;;1.58;;
18752;SDS011;9505;50.882;5.350;2023-07-20T13:42:03;13.18;;;2.22;;
18752;SDS011;9505;50.882;5.350;2023-07-20T13:44:33;8.38;;;1.95;;
18752;SDS011;9505;50.882;5.350;2023-07-20T13:46:59;14.88;;;2.70;;
18752;SDS011;9505;50.882;5.350;2023-07-20T13:49:25;9.35;;;1.90;;
18752;SDS011;9505;50.882;5.350;2023-07-20T13:51:51;11.38;;;2.13;;
18752;SDS011;9505;50.882;5.350;2023-07-20T13:54:17;16.23;;;2.95;;
18752;SDS011;9505;50.882;5.350;2023-07-20T13:56:42;15.43;;;2.50;;
18752;SDS011;9505;50.882;5.350;2023-07-20T13:59:08;13.13;;;2.53;;
18752;SDS011;9505;50.882;5.350;2023-07-20T14:01:33;7.82;;;2.10;;
18752;SDS011;9505;50.882;5.350;2023-07-20T14:04:00;8.23;;;2.00;;
18752;SDS011;9505;50.882;5.350;2023-07-20T14:06:29;7.25;;;1.80;;
18752;SDS011;9505;50.882;5.350;2023-07-20T14:08:56;9.20;;;2.20;;
18752;SDS011;9505;50.882;5.350;2023-07-20T14:11:22;8.20;;;1.85;;
18752;SDS011;9505;50.882;5.350;2023-07-20T14:13:49;6.63;;;1.50;;
18752;SDS011;9505;50.882;5.350;2023-07-20T14:16:15;8.10;;;2.03;;
18752;SDS011;9505;50.882;5.350;2023-07-20T14:18:41;5.40;;;1.48;;
18752;SDS011;9505;50.882;5.350;2023-07-20T14:21:07;7.20;;;1.75;;
18752;SDS011;9505;50.882;5.350;2023-07-20T14:23:33;6.00;;;1.70;;
18752;SDS011;9505;50.882;5.350;2023-07-20T14:25:59;12.90;;;2.40;;
18752;SDS011;9505;50.882;5.350;2023-07-20T14:28:25;8.80;;;2.08;;
18752;SDS011;9505;50.882;5.350;2023-07-20T14:30:50;5.15;;;1.35;;
18752;SDS011;9505;50.882;5.350;2023-07-20T14:33:16;10.00;;;1.80;;
18752;SDS011;9505;50.882;5.350;2023-07-20T14:35:42;9.35;;;1.65;;
18752;SDS011;9505;50.882;5.350;2023-07-20T14:38:07;9.52;;;2.08;;
18752;SDS011;9505;50.882;5.350;2023-07-20T14:40:33;10.23;;;2.25;;
18752;SDS011;9505;50.882;5.350;2023-07-20T14:42:58;7.07;;;1.70;;
18752;SDS011;9505;50.882;5.350;2023-07-20T14:45:26;5.32;;;1.40;;
18752;SDS011;9505;50.882;5.350;2023-07-20T14:47:52;7.10;;;1.73;;
18752;SDS011;9505;50.882;5.350;2023-07-20T14:50:22;7.57;;;1.55;;
18752;SDS011;9505;50.882;5.350;2023-07-20T14:52:48;11.13;;;2.22;;
18752;SDS011;9505;50.882;5.350;2023-07-20T14:55:14;5.82;;;1.45;;
18752;SDS011;9505;50.882;5.350;2023-07-20T14:57:40;5.63;;;1.45;;
18752;SDS011;9505;50.882;5.350;2023-07-20T15:00:06;12.07;;;2.15;;
18752;SDS011;9505;50.882;5.350;2023-07-20T15:02:33;10.05;;;2.13;;
18752;SDS011;9505;50.882;5.350;2023-07-20T15:04:59;7.40;;;1.63;;
18752;SDS011;9505;50.882;5.350;2023-07-20T15:07:25;8.43;;;1.73;;
18752;SDS011;9505;50.882;5.350;2023-07-20T15:09:51;6.07;;;1.42;;
18752;SDS011;9505;50.882;5.350;2023-07-20T15:12:16;11.05;;;2.38;;
18752;SDS011;9505;50.882;5.350;2023-07-20T15:14:42;13.00;;;2.60;;